sensor_id;sensor_type;location;lat;lon;timestamp;pressure;altitude;pressure_sealevel;temperature;humidity
13594;BME280;6449;47.666;9.160;2024-02-23T00:02:55;95268.50;;;7.34;100.00
13594;BME280;6449;47.666;9.160;2024-02-23T00:07:55;95247.66;;;7.24;100.00
13594;BME280;6449;47.666;9.160;2024-02-23T00:12:49;95251.78;;;7.17;100.00
13594;BME280;6449;47.666;9.160;2024-02-23T00:17:42;95243.53;;;6.93;100.00
13594;BME280;6449;47.666;9.160;2024-02-23T00:22:36;95252.28;;;6.92;100.00
13594;BME280;6449;47.666;9.160;2024-02-23T00:27:31;95235.88;;;7.11;100.00
13594;BME280;6449;47.666;9.160;2024-02-23T00:32:24;95223.50;;;7.03;100.00
13594;BME280;6449;47.666;9.160;2024-02-23T00:37:18;95222.16;;;6.99;100.00
13594;BME280;6449;47.666;9.160;2024-02-23T00:42:11;95234.75;;;6.94;100.00
13594;BME280;6449;47.666;9.160;2024-02-23T00:47:06;95234.19;;;6.90;100.00
13594;BME280;6449;47.666;9.160;2024-02-23T00:52:00;95248.41;;;6.76;100.00
13594;BME280;6449;47.666;9.160;2024-02-23T00:56:53;95236.09;;;6.78;100.00
13594;BME280;6449;47.666;9.160;2024-02-23T01:01:48;95253.53;;;6.88;100.00
13594;BME280;6449;47.666;9.160;2024-02-23T01:06:46;95248.72;;;6.83;100.00
13594;BME280;6449;47.666;9.160;2024-02-23T01:11:40;95273.91;;;6.73;100.00
13594;BME280;6449;47.666;9.160;2024-02-23T01:16:33;95296.44;;;6.93;100.00
13594;BME280;6449;47.666;9.160;2024-02-23T01:21:27;95309.97;;;6.77;100.00
13594;BME280;6449;47.666;9.160;2024-02-23T01:26:21;95326.88;;;6.93;100.00
13594;BME280;6449;47.666;9.160;2024-02-23T01:31:15;95331.38;;;6.91;100.00
13594;BME280;6449;47.666;9.160;2024-02-23T01:36:08;95341.28;;;6.87;100.00
13594;BME280;6449;47.666;9.160;2024-02-23T01:41:03;95358.50;;;6.78;100.00
13594;BME280;6449;47.666;9.160;2024-02-23T01:46:00;95371.78;;;6.45;100.00
13594;BME280;6449;47.666;9.160;2024-02-23T01:50:54;95384.97;;;6.32;100.00
13594;BME280;6449;47.666;9.160;2024-02-23T01:55:49;95375.81;;;6.38;100.00
13594;BME280;6449;47.666;9.160;2024-02-23T02:00:43;95390.56;;;6.07;100.00
13594;BME280;6449;47.666;9.160;2024-02-23T02:05:38;95390.25;;;5.89;100.00
13594;BME280;6449;47.666;9.160;2024-02-23T02:10:32;95385.56;;;5.83;100.00
13594;BME280;6449;47.666;9.160;2024-02-23T02:15:26;95393.88;;;5.76;100.00
13594;BME280;6449;47.666;9.160;2024-02-23T02:20:24;95400.84;;;5.76;100.00
13594;BME280;6449;47.666;9.160;2024-02-23T02:25:19;95393.69;;;5.89;100.00
13594;BME280;6449;47.666;9.160;2024-02-23T02:30:14;95384.09;;;5.90;100.00
13594;BME280;6449;47.666;9.160;2024-02-23T02:35:10;95377.50;;;5.97;100.00
13594;BME280;6449;47.666;9.160;2024-02-23T02:40:05;95374.94;;;6.07;100.00
13594;BME280;6449;47.666;9.160;2024-02-23T02:45:00;95377.94;;;6.23;100.00
13594;BME280;6449;47.666;9.160;2024-02-23T02:49:55;95367.41;;;6.03;100.00
13594;BME280;6449;47.666;9.160;2024-02-23T02:54:49;95372.78;;;6.12;100.00
13594;BME280;6449;47.666;9.160;2024-02-23T02:59:42;95373.50;;;6.14;100.00
13594;BME280;6449;47.666;9.160;2024-02-23T03:04:38;95372.22;;;6.08;100.00
13594;BME280;6449;47.666;9.160;2024-02-23T03:09:31;95374.13;;;6.06;100.00
13594;BME280;6449;47.666;9.160;2024-02-23T03:14:25;95360.75;;;6.11;100.00
13594;BME280;6449;47.666;9.160;2024-02-23T03:19:19;95347.88;;;6.09;100.00
13594;BME280;6449;47.666;9.160;2024-02-23T03:24:16;95337.16;;;6.02;100.00
13594;BME280;6449;47.666;9.160;2024-02-23T03:29:10;95336.75;;;6.07;100.00
13594;BME280;6449;47.666;9.160;2024-02-23T03:34:03;95353.31;;;6.06;100.00
13594;BME280;6449;47.666;9.160;2024-02-23T03:38:57;95347.66;;;6.22;100.00
13594;BME280;6449;47.666;9.160;2024-02-23T03:43:51;95374.56;;;6.11;100.00
13594;BME280;6449;47.666;9.160;2024-02-23T03:48:45;95354.72;;;6.10;100.00
13594;BME280;6449;47.666;9.160;2024-02-23T03:53:39;95350.34;;;6.11;100.00
13594;BME280;6449;47.666;9.160;2024-02-23T03:58:32;95336.63;;;6.09;100.00
13594;BME280;6449;47.666;9.160;2024-02-23T04:03:27;95337.75;;;6.16;100.00
13594;BME280;6449;47.666;9.160;2024-02-23T04:08:20;95320.25;;;6.18;100.00
13594;BME280;6449;47.666;9.160;2024-02-23T04:13:16;95321.72;;;6.11;100.00
13594;BME280;6449;47.666;9.160;2024-02-23T04:18:13;95330.66;;;6.18;100.00
13594;BME280;6449;47.666;9.160;2024-02-23T04:23:07;95321.56;;;6.12;100.00
13594;BME280;6449;47.666;9.160;2024-02-23T04:28:01;95324.44;;;6.09;100.00
13594;BME280;6449;47.666;9.160;2024-02-23T04:32:54;95319.25;;;6.09;100.00
13594;BME280;6449;47.666;9.160;2024-02-23T04:37:48;95327.66;;;6.01;100.00
13594;BME280;6449;47.666;9.160;2024-02-23T04:42:45;95327.22;;;5.96;100.00
13594;BME280;6449;47.666;9.160;2024-02-23T04:47:39;95311.75;;;5.95;100.00
13594;BME280;6449;47.666;9.160;2024-02-23T04:52:33;95312.47;;;5.97;100.00
13594;BME280;6449;47.666;9.160;2024-02-23T04:57:27;95333.53;;;5.94;100.00
13594;BME280;6449;47.666;9.160;2024-02-23T05:02:21;95352.19;;;5.99;100.00
13594;BME280;6449;47.666;9.160;2024-02-23T05:07:15;95355.63;;;5.88;100.00
13594;BME280;6449;47.666;9.160;2024-02-23T05:12:09;95358.53;;;5.74;100.00
13594;BME280;6449;47.666;9.160;2024-02-23T05:17:02;95347.81;;;5.67;100.00
13594;BME280;6449;47.666;9.160;2024-02-23T05:21:58;95346.41;;;5.63;100.00
13594;BME280;6449;47.666;9.160;2024-02-23T05:26:51;95327.56;;;5.50;100.00
13594;BME280;6449;47.666;9.160;2024-02-23T05:31:48;95329.38;;;5.59;100.00
13594;BME280;6449;47.666;9.160;2024-02-23T05:36:43;95324.41;;;5.67;100.00
13594;BME280;6449;47.666;9.160;2024-02-23T05:41:39;95316.84;;;5.64;100.00
13594;BME280;6449;47.666;9.160;2024-02-23T05:46:32;95330.28;;;5.69;100.00
13594;BME280;6449;47.666;9.160;2024-02-23T05:51:28;95330.63;;;5.76;100.00
13594;BME280;6449;47.666;9.160;2024-02-23T05:56:22;95331.31;;;5.78;100.00
13594;BME280;6449;47.666;9.160;2024-02-23T06:01:18;95327.91;;;5.77;100.00
13594;BME280;6449;47.666;9.160;2024-02-23T06:06:12;95321.16;;;5.75;100.00
13594;BME280;6449;47.666;9.160;2024-02-23T06:11:06;95302.97;;;5.75;100.00
13594;BME280;6449;47.666;9.160;2024-02-23T06:16:03;95302.41;;;5.71;100.00
13594;BME280;6449;47.666;9.160;2024-02-23T06:20:58;95318.84;;;5.72;100.00
13594;BME280;6449;47.666;9.160;2024-02-23T06:25:51;95329.81;;;5.75;100.00
13594;BME280;6449;47.666;9.160;2024-02-23T06:30:45;95344.38;;;5.67;100.00
13594;BME280;6449;47.666;9.160;2024-02-23T06:35:38;95335.75;;;5.66;100.00
13594;BME280;6449;47.666;9.160;2024-02-23T06:40:34;95319.94;;;5.58;100.00
13594;BME280;6449;47.666;9.160;2024-02-23T06:45:42;95321.13;;;5.65;100.00
13594;BME280;6449;47.666;9.160;2024-02-23T06:50:36;95336.59;;;5.67;100.00
13594;BME280;6449;47.666;9.160;2024-02-23T06:55:29;95346.97;;;5.67;100.00
13594;BME280;6449;47.666;9.160;2024-02-23T07:00:24;95365.94;;;5.46;100.00
13594;BME280;6449;47.666;9.160;2024-02-23T07:05:18;95343.84;;;5.52;100.00
13594;BME280;6449;47.666;9.160;2024-02-23T07:10:12;95346.28;;;5.65;100.00
13594;BME280;6449;47.666;9.160;2024-02-23T07:15:06;95360.28;;;5.73;100.00
13594;BME280;6449;47.666;9.160;2024-02-23T07:20:01;95348.25;;;5.72;100.00
13594;BME280;6449;47.666;9.160;2024-02-23T07:24:58;95349.59;;;5.67;100.00
13594;BME280;6449;47.666;9.160;2024-02-23T07:29:53;95363.53;;;5.66;100.00
13594;BME280;6449;47.666;9.160;2024-02-23T07:34:47;95386.16;;;5.75;100.00
13594;BME280;6449;47.666;9.160;2024-02-23T07:39:43;95381.19;;;5.83;100.00
13594;BME280;6449;47.666;9.160;2024-02-23T07:44:36;95366.72;;;5.90;100.00
13594;BME280;6449;47.666;9.160;2024-02-23T07:49:30;95366.72;;;5.90;100.00
13594;BME280;6449;47.666;9.160;2024-02-23T07:54:30;95380.00;;;5.87;100.00
13594;BME280;6449;47.666;9.160;2024-02-23T07:59:25;95379.00;;;5.67;100.00
13594;BME280;6449;47.666;9.160;2024-02-23T08:04:20;95367.34;;;5.83;100.00
13594;BME280;6449;47.666;9.160;2024-02-23T08:09:14;95372.28;;;5.86;100.00
13594;BME280;6449;47.666;9.160;2024-02-23T08:14:10;95379.38;;;5.95;100.00
13594;BME280;6449;47.666;9.160;2024-02-23T08:19:05;95366.97;;;5.98;100.00
13594;BME280;6449;47.666;9.160;2024-02-23T08:23:58;95369.06;;;6.04;100.00
13594;BME280;6449;47.666;9.160;2024-02-23T08:28:52;95370.19;;;6.12;100.00
13594;BME280;6449;47.666;9.160;2024-02-23T08:33:45;95379.25;;;6.17;100.00
13594;BME280;6449;47.666;9.160;2024-02-23T08:38:40;95371.34;;;6.19;100.00
13594;BME280;6449;47.666;9.160;2024-02-23T08:43:34;95368.09;;;6.26;100.00
13594;BME280;6449;47.666;9.160;2024-02-23T08:48:28;95367.13;;;6.27;100.00
13594;BME280;6449;47.666;9.160;2024-02-23T08:53:21;95369.50;;;6.30;100.00
13594;BME280;6449;47.666;9.160;2024-02-23T08:58:19;95355.28;;;6.35;100.00
13594;BME280;6449;47.666;9.160;2024-02-23T09:03:12;95366.00;;;6.41;100.00
13594;BME280;6449;47.666;9.160;2024-02-23T09:08:06;95365.34;;;6.49;100.00
13594;BME280;6449;47.666;9.160;2024-02-23T09:13:00;95363.75;;;6.57;100.00
13594;BME280;6449;47.666;9.160;2024-02-23T09:17:55;95366.25;;;6.69;100.00
13594;BME280;6449;47.666;9.160;2024-02-23T09:22:49;95364.47;;;6.69;100.00
13594;BME280;6449;47.666;9.160;2024-02-23T09:27:42;95380.25;;;6.68;100.00
13594;BME280;6449;47.666;9.160;2024-02-23T09:32:36;95379.44;;;6.67;100.00
13594;BME280;6449;47.666;9.160;2024-02-23T09:37:32;95379.16;;;6.70;100.00
13594;BME280;6449;47.666;9.160;2024-02-23T09:42:28;95379.97;;;6.71;100.00
13594;BME280;6449;47.666;9.160;2024-02-23T09:47:26;95365.19;;;6.71;100.00
13594;BME280;6449;47.666;9.160;2024-02-23T09:52:23;95358.22;;;6.72;100.00
13594;BME280;6449;47.666;9.160;2024-02-23T09:57:18;95366.94;;;6.71;100.00
13594;BME280;6449;47.666;9.160;2024-02-23T10:02:16;95366.13;;;6.70;100.00
13594;BME280;6449;47.666;9.160;2024-02-23T10:32:41;95386.88;;;6.81;100.00
13594;BME280;6449;47.666;9.160;2024-02-23T10:37:34;95380.09;;;6.69;100.00
13594;BME280;6449;47.666;9.160;2024-02-23T10:42:33;95376.59;;;6.80;100.00
13594;BME280;6449;47.666;9.160;2024-02-23T10:47:30;95382.91;;;6.77;100.00
13594;BME280;6449;47.666;9.160;2024-02-23T11:53:50;95381.28;;;7.26;100.00
13594;BME280;6449;47.666;9.160;2024-02-23T11:58:44;95361.69;;;7.42;100.00
13594;BME280;6449;47.666;9.160;2024-02-23T12:03:38;95366.50;;;7.46;100.00
13594;BME280;6449;47.666;9.160;2024-02-23T12:08:32;95365.25;;;7.41;100.00
13594;BME280;6449;47.666;9.160;2024-02-23T12:34:20;95351.50;;;7.29;100.00
13594;BME280;6449;47.666;9.160;2024-02-23T12:39:14;95364.00;;;7.45;100.00
13594;BME280;6449;47.666;9.160;2024-02-23T12:44:07;95365.94;;;7.43;100.00
13594;BME280;6449;47.666;9.160;2024-02-23T12:49:01;95377.06;;;7.45;100.00
13594;BME280;6449;47.666;9.160;2024-02-23T12:53:59;95368.69;;;7.51;100.00
13594;BME280;6449;47.666;9.160;2024-02-23T12:58:53;95355.66;;;7.60;100.00
13594;BME280;6449;47.666;9.160;2024-02-23T13:03:48;95343.72;;;7.58;100.00
13594;BME280;6449;47.666;9.160;2024-02-23T13:08:41;95330.16;;;7.74;100.00
13594;BME280;6449;47.666;9.160;2024-02-23T13:13:36;95321.34;;;7.84;100.00
13594;BME280;6449;47.666;9.160;2024-02-23T13:18:33;95329.31;;;7.73;100.00
13594;BME280;6449;47.666;9.160;2024-02-23T13:23:27;95317.22;;;7.72;100.00
13594;BME280;6449;47.666;9.160;2024-02-23T13:28:22;95316.44;;;7.62;100.00
13594;BME280;6449;47.666;9.160;2024-02-23T13:33:18;95319.72;;;7.74;100.00
13594;BME280;6449;47.666;9.160;2024-02-23T13:38:13;95326.31;;;7.68;100.00
13594;BME280;6449;47.666;9.160;2024-02-23T13:43:08;95313.25;;;7.68;100.00
13594;BME280;6449;47.666;9.160;2024-02-23T13:48:03;95324.09;;;7.64;100.00
13594;BME280;6449;47.666;9.160;2024-02-23T13:52:59;95308.59;;;7.62;100.00
13594;BME280;6449;47.666;9.160;2024-02-23T13:57:53;95291.28;;;7.61;100.00
13594;BME280;6449;47.666;9.160;2024-02-23T14:02:48;95280.03;;;7.90;100.00
13594;BME280;6449;47.666;9.160;2024-02-23T14:07:42;95277.97;;;7.83;100.00
13594;BME280;6449;47.666;9.160;2024-02-23T14:12:37;95267.69;;;7.63;100.00
13594;BME280;6449;47.666;9.160;2024-02-23T14:17:31;95285.53;;;7.57;100.00
13594;BME280;6449;47.666;9.160;2024-02-23T14:22:27;95296.34;;;7.72;100.00
13594;BME280;6449;47.666;9.160;2024-02-23T14:27:21;95289.66;;;7.79;100.00
13594;BME280;6449;47.666;9.160;2024-02-23T14:37:23;95258.19;;;7.71;100.00
13594;BME280;6449;47.666;9.160;2024-02-23T14:42:16;95257.53;;;7.69;100.00
13594;BME280;6449;47.666;9.160;2024-02-23T14:47:10;95256.72;;;7.59;100.00
13594;BME280;6449;47.666;9.160;2024-02-23T14:52:05;95251.34;;;7.70;100.00
13594;BME280;6449;47.666;9.160;2024-02-23T14:57:00;95249.03;;;7.67;100.00
13594;BME280;6449;47.666;9.160;2024-02-23T15:01:53;95247.91;;;7.70;100.00
13594;BME280;6449;47.666;9.160;2024-02-23T15:06:47;95245.56;;;7.67;100.00
13594;BME280;6449;47.666;9.160;2024-02-23T15:16:45;95251.09;;;7.54;100.00
13594;BME280;6449;47.666;9.160;2024-02-23T15:21:39;95246.84;;;7.63;100.00
13594;BME280;6449;47.666;9.160;2024-02-23T15:26:33;95241.63;;;7.63;100.00
13594;BME280;6449;47.666;9.160;2024-02-23T15:31:26;95242.72;;;7.50;100.00
13594;BME280;6449;47.666;9.160;2024-02-23T15:36:21;95246.28;;;7.40;100.00
13594;BME280;6449;47.666;9.160;2024-02-23T15:41:15;95245.03;;;7.63;100.00
13594;BME280;6449;47.666;9.160;2024-02-23T15:46:08;95243.00;;;7.57;100.00
13594;BME280;6449;47.666;9.160;2024-02-23T15:51:02;95232.28;;;7.60;100.00
13594;BME280;6449;47.666;9.160;2024-02-23T15:56:16;95228.19;;;7.57;100.00
13594;BME280;6449;47.666;9.160;2024-02-23T16:01:12;95215.66;;;7.61;100.00
13594;BME280;6449;47.666;9.160;2024-02-23T16:06:06;95224.59;;;7.58;100.00
13594;BME280;6449;47.666;9.160;2024-02-23T16:11:00;95225.69;;;7.56;100.00
13594;BME280;6449;47.666;9.160;2024-02-23T16:15:55;95233.38;;;7.67;100.00
13594;BME280;6449;47.666;9.160;2024-02-23T16:20:48;95230.94;;;7.46;100.00
13594;BME280;6449;47.666;9.160;2024-02-23T16:25:43;95218.31;;;7.42;100.00
13594;BME280;6449;47.666;9.160;2024-02-23T16:30:38;95218.31;;;7.42;100.00
13594;BME280;6449;47.666;9.160;2024-02-23T16:35:35;95226.25;;;7.40;100.00
13594;BME280;6449;47.666;9.160;2024-02-23T16:40:31;95228.19;;;7.48;100.00
13594;BME280;6449;47.666;9.160;2024-02-23T16:45:25;95225.72;;;7.37;100.00
13594;BME280;6449;47.666;9.160;2024-02-23T16:50:20;95222.69;;;7.22;100.00
13594;BME280;6449;47.666;9.160;2024-02-23T16:55:16;95231.88;;;7.16;100.00
13594;BME280;6449;47.666;9.160;2024-02-23T17:00:16;95220.66;;;7.25;100.00
13594;BME280;6449;47.666;9.160;2024-02-23T17:05:11;95225.84;;;7.25;100.00
13594;BME280;6449;47.666;9.160;2024-02-23T17:10:06;95235.03;;;7.29;100.00
13594;BME280;6449;47.666;9.160;2024-02-23T17:15:01;95240.53;;;7.17;100.00
13594;BME280;6449;47.666;9.160;2024-02-23T17:19:54;95243.66;;;7.01;100.00
13594;BME280;6449;47.666;9.160;2024-02-23T17:24:48;95243.53;;;6.93;100.00
13594;BME280;6449;47.666;9.160;2024-02-23T17:29:42;95241.00;;;6.81;100.00
13594;BME280;6449;47.666;9.160;2024-02-23T17:34:37;95246.50;;;6.78;100.00
13594;BME280;6449;47.666;9.160;2024-02-23T17:39:31;95244.06;;;6.77;100.00
13594;BME280;6449;47.666;9.160;2024-02-23T17:44:24;95244.97;;;6.66;100.00
13594;BME280;6449;47.666;9.160;2024-02-23T17:49:20;95235.25;;;6.68;100.00
13594;BME280;6449;47.666;9.160;2024-02-23T17:54:21;95244.00;;;6.57;100.00
13594;BME280;6449;47.666;9.160;2024-02-23T17:59:15;95235.25;;;6.68;100.00
13594;BME280;6449;47.666;9.160;2024-02-23T18:04:08;95232.47;;;6.60;100.00
13594;BME280;6449;47.666;9.160;2024-02-23T18:09:04;95234.66;;;6.55;100.00
13594;BME280;6449;47.666;9.160;2024-02-23T18:13:59;95231.66;;;6.50;100.00
13594;BME280;6449;47.666;9.160;2024-02-23T18:18:56;95227.38;;;6.49;100.00
13594;BME280;6449;47.666;9.160;2024-02-23T18:23:54;95223.41;;;6.45;100.00
13594;BME280;6449;47.666;9.160;2024-02-23T18:28:51;95220.13;;;6.52;100.00
13594;BME280;6449;47.666;9.160;2024-02-23T18:33:46;95234.41;;;6.58;100.00
13594;BME280;6449;47.666;9.160;2024-02-23T18:38:39;95235.94;;;6.61;100.00
13594;BME280;6449;47.666;9.160;2024-02-23T18:43:35;95252.50;;;6.69;100.00
13594;BME280;6449;47.666;9.160;2024-02-23T18:48:45;95244.28;;;6.64;100.00
13594;BME280;6449;47.666;9.160;2024-02-23T18:53:39;95236.22;;;6.67;100.00
13594;BME280;6449;47.666;9.160;2024-02-23T18:58:33;95227.56;;;6.76;100.00
13594;BME280;6449;47.666;9.160;2024-02-23T19:03:40;95231.44;;;6.72;100.00
13594;BME280;6449;47.666;9.160;2024-02-23T19:08:51;95230.84;;;6.69;100.00
13594;BME280;6449;47.666;9.160;2024-02-23T19:14:09;95232.22;;;6.63;100.00
13594;BME280;6449;47.666;9.160;2024-02-23T19:19:36;95238.38;;;6.62;100.00
13594;BME280;6449;47.666;9.160;2024-02-23T19:24:31;95238.63;;;6.59;100.00
13594;BME280;6449;47.666;9.160;2024-02-23T19:29:25;95246.03;;;6.54;100.00
13594;BME280;6449;47.666;9.160;2024-02-23T19:34:24;95254.25;;;6.59;100.00
13594;BME280;6449;47.666;9.160;2024-02-23T19:39:19;95256.16;;;6.47;100.00
13594;BME280;6449;47.666;9.160;2024-02-23T19:44:15;95259.00;;;6.44;100.00
13594;BME280;6449;47.666;9.160;2024-02-23T19:49:09;95251.63;;;6.40;100.00
13594;BME280;6449;47.666;9.160;2024-02-23T19:54:03;95251.03;;;6.36;100.00
13594;BME280;6449;47.666;9.160;2024-02-23T19:58:57;95253.78;;;6.44;100.00
13594;BME280;6449;47.666;9.160;2024-02-23T20:03:52;95250.91;;;6.38;100.00
13594;BME280;6449;47.666;9.160;2024-02-23T20:09:24;95254.16;;;6.30;100.00
13594;BME280;6449;47.666;9.160;2024-02-23T20:14:18;95259.09;;;6.23;100.00
13594;BME280;6449;47.666;9.160;2024-02-23T20:19:35;95260.53;;;6.16;100.00
13594;BME280;6449;47.666;9.160;2024-02-23T20:24:30;95248.72;;;6.12;100.00
13594;BME280;6449;47.666;9.160;2024-02-23T20:29:35;95259.50;;;5.98;100.00
13594;BME280;6449;47.666;9.160;2024-02-23T20:34:50;95261.31;;;5.86;100.00
13594;BME280;6449;47.666;9.160;2024-02-23T20:39:49;95254.91;;;5.69;100.00
13594;BME280;6449;47.666;9.160;2024-02-23T20:44:47;95260.34;;;5.24;100.00
13594;BME280;6449;47.666;9.160;2024-02-23T20:50:09;95275.78;;;4.94;100.00
13594;BME280;6449;47.666;9.160;2024-02-23T20:55:22;95259.72;;;4.89;100.00
13594;BME280;6449;47.666;9.160;2024-02-23T21:01:04;95254.75;;;4.97;100.00
13594;BME280;6449;47.666;9.160;2024-02-23T21:07:02;95249.06;;;5.03;100.00
13594;BME280;6449;47.666;9.160;2024-02-23T21:12:35;95252.53;;;4.92;100.00
13594;BME280;6449;47.666;9.160;2024-02-23T21:18:01;95272.19;;;4.52;100.00
13594;BME280;6449;47.666;9.160;2024-02-23T21:23:31;95274.47;;;4.23;100.00
13594;BME280;6449;47.666;9.160;2024-02-23T21:28:51;95289.41;;;4.19;100.00
13594;BME280;6449;47.666;9.160;2024-02-23T21:39:46;95264.75;;;4.36;100.00
13594;BME280;6449;47.666;9.160;2024-02-23T21:44:43;95270.44;;;4.30;100.00
13594;BME280;6449;47.666;9.160;2024-02-23T21:49:55;95270.44;;;4.30;100.00
13594;BME280;6449;47.666;9.160;2024-02-23T21:55:15;95277.03;;;4.11;100.00
13594;BME280;6449;47.666;9.160;2024-02-23T22:00:19;95287.16;;;4.03;100.00
13594;BME280;6449;47.666;9.160;2024-02-23T22:05:32;95290.47;;;4.05;100.00
13594;BME280;6449;47.666;9.160;2024-02-23T22:16:43;95307.38;;;3.76;100.00
13594;BME280;6449;47.666;9.160;2024-02-23T22:21:37;95303.53;;;3.92;100.00
13594;BME280;6449;47.666;9.160;2024-02-23T22:26:30;95306.25;;;4.02;100.00
13594;BME280;6449;47.666;9.160;2024-02-23T22:31:25;95305.78;;;4.19;100.00
13594;BME280;6449;47.666;9.160;2024-02-23T22:36:20;95299.78;;;4.19;100.00
13594;BME280;6449;47.666;9.160;2024-02-23T22:41:13;95302.72;;;4.26;100.00
13594;BME280;6449;47.666;9.160;2024-02-23T22:46:07;95312.75;;;4.19;100.00
13594;BME280;6449;47.666;9.160;2024-02-23T22:51:03;95324.63;;;3.99;100.00
13594;BME280;6449;47.666;9.160;2024-02-23T22:55:59;95317.09;;;3.96;100.00
13594;BME280;6449;47.666;9.160;2024-02-23T23:00:53;95333.81;;;3.92;100.00
13594;BME280;6449;47.666;9.160;2024-02-23T23:05:46;95330.69;;;4.11;100.00
13594;BME280;6449;47.666;9.160;2024-02-23T23:10:40;95329.63;;;4.25;100.00
13594;BME280;6449;47.666;9.160;2024-02-23T23:15:35;95336.22;;;4.40;100.00
13594;BME280;6449;47.666;9.160;2024-02-23T23:20:29;95331.16;;;4.38;100.00
13594;BME280;6449;47.666;9.160;2024-02-23T23:25:23;95328.69;;;4.48;100.00
13594;BME280;6449;47.666;9.160;2024-02-23T23:30:17;95343.06;;;4.41;100.00
13594;BME280;6449;47.666;9.160;2024-02-23T23:35:11;95350.63;;;4.33;100.00
13594;BME280;6449;47.666;9.160;2024-02-23T23:40:07;95354.25;;;4.30;100.00
13594;BME280;6449;47.666;9.160;2024-02-23T23:45:01;95346.88;;;4.37;100.00
13594;BME280;6449;47.666;9.160;2024-02-23T23:49:54;95346.88;;;4.59;100.00
13594;BME280;6449;47.666;9.160;2024-02-23T23:54:49;95354.75;;;4.58;100.00
13594;BME280;6449;47.666;9.160;2024-02-23T23:59:43;95350.75;;;4.65;100.00
